Time;durP1;ratioP1;P1;durP2;ratioP2;P2;SDS_P1;SDS_P2;PMS_P1;PMS_P2;Temp;Humidity;BMP_temperature;BMP_pressure;BME280_temperature;BME280_humidity;BME280_pressure;Samples;Min_cycle;Max_cycle;Signal;HPM_P1;HPM_P2
2021/04/04 00:02:16;;;;;;;18.57;10.00;;;;;;;1.30;73.53;99645.05;114446;1193;64377;-83
2021/04/04 00:04:43;;;;;;;16.87;10.47;;;;;;;1.29;73.63;99640.70;114339;1193;64352;-84
2021/04/04 00:07:09;;;;;;;17.57;9.33;;;;;;;1.29;73.60;99645.09;114318;1192;64365;-85
2021/04/04 00:09:36;;;;;;;14.73;8.93;;;;;;;1.34;74.37;99640.59;114621;1193;64342;-83
2021/04/04 00:12:05;;;;;;;16.50;7.23;;;;;;;1.35;74.16;99647.58;114384;1193;64375;-86
2021/04/04 00:14:32;;;;;;;12.70;6.30;;;;;;;1.34;73.96;99649.34;114408;1193;64538;-84
2021/04/04 00:16:59;;;;;;;14.70;7.25;;;;;;;1.33;73.94;99644.09;114782;1192;64346;-83
2021/04/04 00:19:26;;;;;;;11.50;6.25;;;;;;;1.28;74.12;99638.97;114380;1193;64381;-85
2021/04/04 00:21:52;;;;;;;11.97;6.83;;;;;;;1.26;74.25;99640.75;114355;1192;64385;-83
2021/04/04 00:24:19;;;;;;;12.30;6.05;;;;;;;1.25;74.11;99646.92;114319;1193;64385;-84
2021/04/04 00:26:46;;;;;;;12.17;5.10;;;;;;;1.23;74.60;99646.11;114305;1193;64375;-85
2021/04/04 00:29:13;;;;;;;12.53;5.73;;;;;;;1.21;74.00;99645.29;114368;1193;64370;-85
2021/04/04 00:31:40;;;;;;;10.27;5.83;;;;;;;1.19;74.23;99644.45;114303;1193;64407;-87
2021/04/04 00:34:07;;;;;;;13.43;6.83;;;;;;;1.17;74.56;99646.26;114689;1193;64240;-83
2021/04/04 00:36:34;;;;;;;10.97;5.47;;;;;;;1.15;74.08;99642.81;114347;1193;64355;-86
2021/04/04 00:39:01;;;;;;;11.77;5.20;;;;;;;1.12;74.28;99645.50;114311;1193;64487;-83
2021/04/04 00:41:28;;;;;;;9.23;5.30;;;;;;;1.11;73.84;99645.55;114521;1193;64365;-84
2021/04/04 00:43:55;;;;;;;10.00;5.70;;;;;;;1.08;74.92;99646.47;114413;1193;64420;-83
2021/04/04 00:46:21;;;;;;;9.87;6.00;;;;;;;1.03;74.80;99645.73;114494;1193;64317;-84
2021/04/04 00:48:48;;;;;;;15.57;5.73;;;;;;;1.00;74.25;99643.16;114397;1193;64369;-88
2021/04/04 00:51:15;;;;;;;11.47;5.30;;;;;;;0.96;74.04;99639.76;114322;1192;64484;-84
2021/04/04 00:53:44;;;;;;;13.93;5.97;;;;;;;0.91;74.59;99639.00;114448;1193;64324;-87
2021/04/04 00:56:12;;;;;;;8.83;5.53;;;;;;;0.88;74.05;99640.82;114372;1193;64458;-85
2021/04/04 00:58:40;;;;;;;11.70;5.55;;;;;;;0.83;74.50;99640.06;114481;1192;64289;-82
2021/04/04 01:01:10;;;;;;;9.73;5.27;;;;;;;0.79;74.22;99650.66;114544;1192;64349;-83
2021/04/04 01:03:39;;;;;;;9.33;5.03;;;;;;;0.77;74.68;99638.47;114543;1192;64327;-83
2021/04/04 01:06:08;;;;;;;10.43;5.30;;;;;;;0.75;74.58;99642.87;114621;1193;64356;-84
2021/04/04 01:08:37;;;;;;;11.47;5.77;;;;;;;0.74;74.72;99641.14;114488;1193;64343;-84
2021/04/04 01:11:06;;;;;;;11.83;5.03;;;;;;;0.74;74.34;99642.01;114491;1193;64359;-84
2021/04/04 01:13:40;;;;;;;8.63;4.43;;;;;;;0.70;74.94;99643.00;114337;1193;64452;-85
2021/04/04 01:16:26;;;;;;;8.90;5.30;;;;;;;0.67;74.34;99645.67;114342;1193;64510;-86
2021/04/04 01:19:10;;;;;;;14.20;4.90;;;;;;;0.65;74.93;99644.86;114664;1192;64455;-84
2021/04/04 01:21:46;;;;;;;9.00;4.90;;;;;;;0.63;74.60;99638.75;114369;1193;64346;-88
2021/04/04 01:24:51;;;;;;;12.60;5.30;;;;;;;0.61;74.87;99644.95;114383;1193;64455;-84
2021/04/04 01:27:27;;;;;;;14.50;6.85;;;;;;;0.57;74.41;99641.52;114362;1193;64371;-87
2021/04/04 01:29:56;;;;;;;12.47;6.73;;;;;;;0.57;74.93;99638.02;114354;1193;64304;-85
2021/04/04 01:32:24;;;;;;;21.13;6.00;;;;;;;0.59;74.49;99649.39;114519;1192;64304;-83
2021/04/04 01:34:52;;;;;;;11.97;6.77;;;;;;;0.61;74.97;99645.81;114310;1193;64352;-83
2021/04/04 01:37:20;;;;;;;16.50;7.15;;;;;;;0.66;74.41;99649.22;114359;1193;64480;-90
2021/04/04 01:39:54;;;;;;;14.87;7.17;;;;;;;0.71;74.65;99651.75;114365;1193;64330;-87
2021/04/04 01:42:22;;;;;;;11.53;6.77;;;;;;;0.76;75.37;99653.38;114368;1192;64522;-85
2021/04/04 01:44:51;;;;;;;9.80;5.63;;;;;;;0.81;74.78;99659.37;114531;1192;64429;-84
2021/04/04 01:47:20;;;;;;;12.20;6.30;;;;;;;0.85;74.75;99660.17;114451;1192;64449;-85
2021/04/04 01:49:51;;;;;;;12.00;7.97;;;;;;;0.90;74.88;99653.05;114434;1193;64371;-89
2021/04/04 01:52:19;;;;;;;13.55;7.25;;;;;;;0.92;74.28;99651.24;114347;1193;64458;-84
2021/04/04 01:54:47;;;;;;;13.40;7.95;;;;;;;0.94;74.40;99657.31;114385;1193;64376;-83
2021/04/04 01:57:16;;;;;;;11.40;6.03;;;;;;;0.99;74.77;99659.84;114321;1193;64343;-84
2021/04/04 01:59:46;;;;;;;12.77;6.70;;;;;;;1.00;74.28;99654.55;114616;1193;64368;-87
2021/04/04 02:02:14;;;;;;;15.57;7.40;;;;;;;1.05;74.29;99651.81;114413;1193;64420;-84
2021/04/04 02:04:42;;;;;;;14.00;6.65;;;;;;;1.08;74.29;99647.36;114449;1193;64301;-84
2021/04/04 02:07:11;;;;;;;10.70;6.33;;;;;;;1.12;75.07;99649.90;114338;1192;64800;-84
2021/04/04 02:09:40;;;;;;;10.75;6.20;;;;;;;1.13;74.83;99649.86;114398;1193;64372;-89
2021/04/04 02:12:08;;;;;;;10.10;5.90;;;;;;;1.13;74.38;99647.22;114554;1193;64522;-88
2021/04/04 02:14:36;;;;;;;10.70;5.97;;;;;;;1.13;74.95;99641.96;114558;1193;64362;-86
2021/04/04 02:17:04;;;;;;;12.05;5.25;;;;;;;1.13;74.86;99646.36;114608;1193;64468;-84
2021/04/04 02:19:32;;;;;;;10.93;6.63;;;;;;;1.12;74.12;99645.50;114440;1192;64417;-84
2021/04/04 02:21:59;;;;;;;8.23;4.90;;;;;;;1.11;74.43;99640.28;114430;1193;64369;-88
2021/04/04 02:24:28;;;;;;;13.60;5.95;;;;;;;1.10;74.88;99641.19;114387;1193;64330;-86
2021/04/04 02:26:56;;;;;;;13.75;5.70;;;;;;;1.08;74.71;99641.20;114330;1193;64385;-87
2021/04/04 02:29:22;;;;;;;13.73;5.87;;;;;;;1.05;74.26;99636.03;114479;1193;64385;-85
2021/04/04 02:31:55;;;;;;;14.07;5.87;;;;;;;1.01;74.13;99634.36;114310;1193;64474;-88
2021/04/04 02:34:26;;;;;;;8.27;6.33;;;;;;;0.96;74.94;99626.61;114715;1193;64369;-84
2021/04/04 02:36:53;;;;;;;9.35;5.65;;;;;;;0.91;74.46;99632.88;114417;1193;64452;-85
2021/04/04 02:39:38;;;;;;;13.33;5.63;;;;;;;0.85;74.14;99625.99;114340;1193;64335;-88
2021/04/04 02:42:07;;;;;;;12.93;6.58;;;;;;;0.78;74.88;99627.05;114422;1193;64347;-85
2021/04/04 02:44:35;;;;;;;10.27;7.10;;;;;;;0.72;74.48;99628.05;114374;1193;64551;-84
2021/04/04 02:47:06;;;;;;;11.10;5.90;;;;;;;0.66;74.67;99628.19;114384;1193;64464;-85
2021/04/04 02:49:36;;;;;;;13.65;7.15;;;;;;;0.60;75.09;99623.06;114632;1193;64426;-86
2021/04/04 02:52:06;;;;;;;10.73;5.97;;;;;;;0.54;74.28;99624.06;114514;1193;64384;-84
2021/04/04 02:54:36;;;;;;;11.17;6.63;;;;;;;0.48;74.58;99618.95;114450;1192;64455;-86
2021/04/04 02:57:06;;;;;;;11.43;7.10;;;;;;;0.45;75.24;99620.80;114361;1193;64353;-84
2021/04/04 02:59:35;;;;;;;13.35;7.60;;;;;;;0.42;74.35;99620.84;114456;1193;64436;-84
2021/04/04 03:02:05;;;;;;;11.00;7.10;;;;;;;0.37;74.35;99618.31;114371;1193;64468;-85
2021/04/04 03:04:36;;;;;;;12.25;7.45;;;;;;;0.33;75.13;99618.43;114430;1193;64538;-87
2021/04/04 03:07:06;;;;;;;14.80;7.93;;;;;;;0.30;74.66;99619.34;114402;1193;64468;-87
2021/04/04 03:09:34;;;;;;;13.67;8.60;;;;;;;0.26;75.23;99612.45;114361;1192;64452;-84
2021/04/04 03:12:02;;;;;;;15.30;7.90;;;;;;;0.26;74.73;99615.07;114693;1193;64423;-84
2021/04/04 03:14:30;;;;;;;9.60;6.80;;;;;;;0.21;74.96;99609.91;114388;1192;64408;-84
2021/04/04 03:16:58;;;;;;;11.07;6.20;;;;;;;0.22;74.94;99616.88;114314;1193;64391;-88
2021/04/04 03:19:27;;;;;;;13.30;6.50;;;;;;;0.22;75.47;99614.26;114696;1193;64417;-85
2021/04/04 03:21:55;;;;;;;17.20;6.70;;;;;;;0.23;75.07;99613.36;114408;1193;64442;-83
2021/04/04 03:24:26;;;;;;;11.03;6.23;;;;;;;0.22;74.67;99616.02;114315;1193;64382;-85
2021/04/04 03:26:53;;;;;;;11.53;5.80;;;;;;;0.20;74.89;99618.69;114631;1190;64365;-86
2021/04/04 03:29:21;;;;;;;10.03;5.80;;;;;;;0.20;75.09;99618.69;114419;1193;64321;-85
2021/04/04 03:31:50;;;;;;;11.57;6.03;;;;;;;0.19;75.21;99622.22;114325;1193;64457;-88
2021/04/04 03:34:18;;;;;;;9.10;5.65;;;;;;;0.16;74.70;99630.14;114340;1193;64446;-87
2021/04/04 03:36:48;;;;;;;14.77;5.80;;;;;;;0.09;74.42;99631.17;114366;1193;64365;-88
2021/04/04 03:39:16;;;;;;;11.20;5.80;;;;;;;0.07;74.46;99632.11;114299;1193;64465;-84
2021/04/04 03:41:45;;;;;;;9.17;5.30;;;;;;;0.04;74.59;99635.65;114397;1193;64353;-86
2021/04/04 03:44:16;;;;;;;12.03;6.80;;;;;;;0.02;75.22;99628.70;114356;1193;64327;-82
2021/04/04 03:46:45;;;;;;;17.23;7.53;;;;;;;0.02;75.09;99632.20;114660;1193;63495;-84
2021/04/04 03:49:13;;;;;;;19.67;7.67;;;;;;;-0.03;75.07;99629.66;114619;1193;64368;-85
2021/04/04 03:51:41;;;;;;;13.97;8.43;;;;;;;-0.02;75.42;99630.52;114810;1192;64503;-83
2021/04/04 03:54:12;;;;;;;19.87;8.90;;;;;;;-0.02;75.18;99620.02;114319;1192;64324;-83
2021/04/04 03:56:43;;;;;;;15.30;8.63;;;;;;;-0.03;74.75;99624.41;114360;1193;64375;-85
2021/04/04 03:59:13;;;;;;;16.03;8.67;;;;;;;-0.05;75.21;99627.97;114449;1193;64397;-87
2021/04/04 04:01:44;;;;;;;13.60;8.80;;;;;;;-0.05;75.36;99627.97;114500;1193;64318;-83
2021/04/04 04:04:14;;;;;;;28.77;13.83;;;;;;;-0.06;75.12;99629.73;114407;1193;64377;-84
2021/04/04 04:06:44;;;;;;;18.53;10.57;;;;;;;-0.07;74.87;99622.72;114426;1193;64452;-86
2021/04/04 04:09:18;;;;;;;19.15;11.15;;;;;;;-0.06;74.88;99626.25;114334;1193;64326;-85
2021/04/04 04:11:48;;;;;;;23.57;11.33;;;;;;;-0.07;74.90;99621.86;114342;1193;64442;-86
2021/04/04 04:14:18;;;;;;;13.93;8.37;;;;;;;-0.06;75.61;99615.74;114383;1193;64349;-84
2021/04/04 04:16:46;;;;;;;15.33;8.87;;;;;;;-0.06;75.45;99620.99;114312;1193;64455;-85
2021/04/04 04:19:15;;;;;;;17.17;9.80;;;;;;;-0.06;75.29;99620.99;114626;1192;64346;-85
2021/04/04 04:21:42;;;;;;;23.25;11.00;;;;;;;-0.06;74.86;99615.74;114450;1193;64473;-87
2021/04/04 04:24:14;;;;;;;22.40;12.27;;;;;;;-0.08;74.95;99617.51;114332;1193;64378;-84
2021/04/04 04:26:43;;;;;;;24.83;14.73;;;;;;;-0.09;75.63;99614.02;114429;1193;64412;-85
2021/04/04 04:29:12;;;;;;;34.83;19.13;;;;;;;-0.08;75.19;99609.64;114532;1192;64410;-86
2021/04/04 04:31:43;;;;;;;42.27;21.27;;;;;;;-0.06;75.45;99615.74;114441;1193;64378;-84
2021/04/04 04:34:11;;;;;;;32.43;17.60;;;;;;;-0.05;75.40;99610.45;114381;1193;64362;-88
2021/04/04 04:36:40;;;;;;;17.35;10.95;;;;;;;-0.04;75.08;99604.30;114294;1193;64493;-85
2021/04/04 04:39:11;;;;;;;19.90;12.15;;;;;;;-0.03;75.07;99606.02;114234;1196;64365;-85
2021/04/04 04:41:46;;;;;;;22.03;11.57;;;;;;;-0.01;75.01;99603.36;114173;1193;64317;-85
2021/04/04 04:44:19;;;;;;;17.50;10.70;;;;;;;0.05;75.23;99611.11;114272;1193;64410;-83
2021/04/04 04:46:47;;;;;;;15.75;9.25;;;;;;;0.11;75.39;99610.98;114376;1193;64379;-85
2021/04/04 04:49:14;;;;;;;15.65;8.75;;;;;;;0.18;75.38;99604.70;114371;1193;64391;-85
2021/04/04 04:51:41;;;;;;;17.87;9.67;;;;;;;0.25;75.00;99610.69;114305;1193;64326;-83
2021/04/04 04:54:09;;;;;;;13.90;7.85;;;;;;;0.32;75.11;99606.16;114923;1193;64419;-87
2021/04/04 04:56:40;;;;;;;16.35;8.55;;;;;;;0.41;75.29;99605.98;114453;1193;64356;-83
2021/04/04 04:59:08;;;;;;;12.60;7.30;;;;;;;0.48;74.67;99604.94;114875;1193;64388;-83
2021/04/04 05:01:42;;;;;;;13.07;7.10;;;;;;;0.54;74.98;99613.55;114449;1193;64461;-84
2021/04/04 05:04:10;;;;;;;14.13;6.60;;;;;;;0.69;74.73;99617.58;114730;1193;64295;-87
2021/04/04 05:06:37;;;;;;;14.10;7.60;;;;;;;0.89;74.19;99613.62;114326;1193;64384;-86
2021/04/04 05:09:07;;;;;;;15.50;8.40;;;;;;;1.01;74.10;99608.06;114211;1193;64394;-84
2021/04/04 05:11:39;;;;;;;19.07;8.97;;;;;;;1.12;74.31;99613.94;114374;1193;66016;-84
2021/04/04 05:14:06;;;;;;;19.90;11.93;;;;;;;1.28;74.34;99617.92;114307;1193;64362;-82
2021/04/04 05:16:32;;;;;;;14.03;7.43;;;;;;;1.46;74.55;99623.59;114335;1191;64366;-83
2021/04/04 05:18:59;;;;;;;15.93;6.93;;;;;;;1.47;74.26;99614.81;114199;1193;64343;-90
2021/04/04 05:21:29;;;;;;;15.80;7.50;;;;;;;1.48;74.15;99620.03;114387;1193;64374;-85
2021/04/04 05:24:06;;;;;;;15.70;7.80;;;;;;;1.57;73.92;99617.14;114481;1192;64321;-85
2021/04/04 05:26:36;;;;;;;12.73;6.13;;;;;;;1.72;74.58;99613.25;114418;1193;64503;-85
2021/04/04 05:29:08;;;;;;;14.77;7.20;;;;;;;1.90;74.19;99617.13;114447;1193;64383;-85
2021/04/04 05:31:50;;;;;;;20.50;7.87;;;;;;;2.11;73.70;99623.58;114368;1193;64430;-87
2021/04/04 05:34:19;;;;;;;10.40;5.60;;;;;;;2.43;74.18;99622.64;114492;1193;64419;-88
2021/04/04 05:37:00;;;;;;;12.25;5.45;;;;;;;2.63;74.05;99622.03;114495;1193;64359;-88
2021/04/04 05:39:30;;;;;;;10.30;5.10;;;;;;;2.85;73.27;99620.43;114323;1193;64499;-88
2021/04/04 05:41:59;;;;;;;9.10;4.57;;;;;;;2.92;73.31;99616.68;114513;1192;64461;-88
2021/04/04 05:44:38;;;;;;;10.87;5.23;;;;;;;3.01;73.62;99622.59;114407;1193;64347;-90
2021/04/04 05:47:13;;;;;;;9.70;5.35;;;;;;;3.17;73.03;99627.30;114174;1193;64311;-89
2021/04/04 05:50:06;;;;;;;8.97;5.07;;;;;;;3.13;73.18;99635.40;114208;1193;64468;-84
2021/04/04 05:52:40;;;;;;;9.37;4.60;;;;;;;3.10;72.48;99635.48;114287;1193;64516;-86
2021/04/04 05:55:50;;;;;;;6.75;4.40;;;;;;;3.16;73.03;99635.28;114360;1193;64343;-88
2021/04/04 05:58:33;;;;;;;12.05;4.70;;;;;;;3.47;73.10;99635.13;114846;1193;64365;-86
2021/04/04 06:01:25;;;;;;;7.97;4.40;;;;;;;3.71;73.08;99634.28;114415;1193;64311;-86
2021/04/04 06:04:29;;;;;;;6.97;4.13;;;;;;;3.75;72.41;99646.48;114357;1192;64359;-87
2021/04/04 06:07:08;;;;;;;8.50;4.20;;;;;;;3.88;72.69;99640.73;114356;1193;64362;-88
2021/04/04 06:09:47;;;;;;;9.63;4.27;;;;;;;3.83;71.75;99642.70;114768;1193;64486;-86
2021/04/04 06:12:51;;;;;;;8.13;3.80;;;;;;;3.66;72.00;99648.56;114441;1193;64423;-87
2021/04/04 06:15:38;;;;;;;8.57;4.10;;;;;;;3.66;72.10;99651.20;114425;1193;64339;-88
2021/04/04 06:18:44;;;;;;;7.70;4.60;;;;;;;3.73;72.02;99644.79;114352;1193;64851;-90
2021/04/04 06:21:21;;;;;;;6.48;3.75;;;;;;;3.75;72.07;99648.23;114552;1193;64445;-86
2021/04/04 06:24:10;;;;;;;9.60;4.50;;;;;;;3.72;72.29;99651.86;114714;1193;64288;-85
2021/04/04 06:26:43;;;;;;;10.20;4.30;;;;;;;3.86;72.35;99650.51;114445;1193;64452;-89
2021/04/04 06:29:31;;;;;;;9.65;4.50;;;;;;;4.04;72.45;99640.14;114508;1193;64369;-91
2021/04/04 06:32:12;;;;;;;9.57;4.20;;;;;;;4.11;71.79;99638.14;114338;1193;64307;-86
2021/04/04 06:34:53;;;;;;;13.20;4.10;;;;;;;4.21;72.09;99638.69;114418;1193;64541;-86
2021/04/04 06:37:42;;;;;;;9.13;4.33;;;;;;;4.34;71.75;99642.59;114371;1193;64382;-92
2021/04/04 06:40:20;;;;;;;8.13;3.80;;;;;;;4.40;72.06;99647.66;114359;1193;64451;-92
2021/04/04 06:43:07;;;;;;;9.15;3.80;;;;;;;4.57;72.20;99644.34;114424;1193;64343;-88
2021/04/04 06:45:53;;;;;;;9.27;4.03;;;;;;;4.70;72.00;99647.38;114308;1193;64298;-85
2021/04/04 06:48:29;;;;;;;7.97;4.17;;;;;;;4.81;72.38;99642.55;114298;1193;64334;-91
2021/04/04 06:51:07;;;;;;;5.70;3.45;;;;;;;4.85;71.61;99637.08;114370;1193;64372;-88
2021/04/04 06:54:01;;;;;;;8.85;3.90;;;;;;;4.89;71.69;99632.52;114337;1193;64446;-87
2021/04/04 06:56:41;;;;;;;11.00;3.90;;;;;;;4.96;71.61;99630.48;114365;1193;64445;-86
2021/04/04 06:59:14;;;;;;;5.70;3.25;;;;;;;5.06;71.72;99630.06;114314;1193;64330;-90
2021/04/04 07:02:07;;;;;;;7.10;3.30;;;;;;;5.25;71.21;99629.31;114305;1193;64346;-87
2021/04/04 07:04:38;;;;;;;5.57;3.40;;;;;;;5.37;70.91;99628.80;114333;1193;64443;-85
2021/04/04 07:07:41;;;;;;;8.10;4.40;;;;;;;5.41;70.52;99625.97;114380;1193;64355;-87
2021/04/04 07:10:10;;;;;;;7.15;4.10;;;;;;;5.59;70.85;99626.95;114374;1193;64317;-88
2021/04/04 07:13:15;;;;;;;5.40;3.20;;;;;;;5.44;71.48;99627.63;114366;1193;64452;-87
2021/04/04 07:16:10;;;;;;;8.67;4.07;;;;;;;5.53;71.36;99624.56;114357;1192;64406;-88
2021/04/04 07:18:58;;;;;;;7.93;3.63;;;;;;;5.66;70.51;99615.20;114342;1193;64359;-88
2021/04/04 07:21:56;;;;;;;7.55;3.05;;;;;;;5.72;70.46;99626.44;114358;1193;64359;-85
2021/04/04 07:24:51;;;;;;;7.45;3.70;;;;;;;5.55;69.94;99620.09;114220;1193;64346;-84
2021/04/04 07:27:48;;;;;;;6.90;3.50;;;;;;;5.70;70.41;99613.26;114258;1193;64352;-89
2021/04/04 07:30:46;;;;;;;4.83;2.97;;;;;;;5.94;70.74;99611.36;114188;1193;64365;-87
2021/04/04 07:33:40;;;;;;;7.70;3.63;;;;;;;6.12;69.67;99618.50;114317;1193;64420;-85
2021/04/04 07:36:29;;;;;;;5.47;3.00;;;;;;;6.06;69.47;99607.31;114381;1192;64353;-84
2021/04/04 07:39:18;;;;;;;10.30;4.30;;;;;;;5.83;69.68;99605.63;114351;1193;64362;-82
2021/04/04 07:42:09;;;;;;;7.20;3.50;;;;;;;5.99;70.11;99605.87;114374;1193;64518;-85
2021/04/04 07:44:45;;;;;;;8.85;4.70;;;;;;;6.19;69.99;99606.69;114215;1193;64369;-87
2021/04/04 07:47:40;;;;;;;8.75;4.30;;;;;;;6.28;69.71;99607.19;114372;1193;64356;-87
2021/04/04 07:50:10;;;;;;;13.80;6.43;;;;;;;6.29;68.85;99603.59;114377;1193;64426;-86
2021/04/04 07:52:48;;;;;;;10.30;5.30;;;;;;;6.36;69.49;99597.97;114391;1193;64378;-83
2021/04/04 07:55:19;;;;;;;8.40;4.23;;;;;;;6.63;70.00;99593.15;114328;1193;64336;-87
2021/04/04 07:58:04;;;;;;;7.30;4.00;;;;;;;6.89;70.15;99591.91;114311;1193;64352;-86
2021/04/04 08:00:33;;;;;;;5.90;3.40;;;;;;;7.09;70.12;99584.75;114397;1193;64378;-84
2021/04/04 08:03:05;;;;;;;7.00;2.90;;;;;;;6.99;69.90;99587.84;114395;1193;64368;-84
2021/04/04 08:05:39;;;;;;;6.30;2.93;;;;;;;6.66;68.84;99589.48;114305;1193;64292;-88
2021/04/04 08:08:11;;;;;;;5.50;3.00;;;;;;;6.33;69.45;99595.44;114350;1193;64404;-85
2021/04/04 08:10:57;;;;;;;6.83;3.50;;;;;;;6.25;69.71;99599.38;114327;1193;64433;-85
2021/04/04 08:13:29;;;;;;;;;;;;;;;6.20;68.87;99588.98;114391;1201;64394;-84
2021/04/04 08:16:10;;;;;;;6.20;3.77;;;;;;;6.43;68.76;99594.09;114345;1193;64449;-86
2021/04/04 08:18:37;;;;;;;6.70;3.17;;;;;;;6.87;69.58;99585.81;114363;1193;64288;-86
2021/04/04 08:21:15;;;;;;;6.17;3.30;;;;;;;7.42;69.77;99592.83;114197;1193;64454;-84
2021/04/04 08:23:47;;;;;;;13.25;6.25;;;;;;;7.52;68.12;99602.06;114338;1193;64436;-84
2021/04/04 08:26:25;;;;;;;6.30;2.40;;;;;;;7.24;67.47;99600.77;114278;1193;64381;-82
2021/04/04 08:29:06;;;;;;;7.60;4.70;;;;;;;7.24;68.14;99600.77;114394;1193;64365;-84
2021/04/04 08:31:39;;;;;;;8.05;3.90;;;;;;;7.51;67.61;99589.72;114318;1193;64433;-79
2021/04/04 08:34:25;;;;;;;9.00;5.40;;;;;;;7.23;68.38;99588.44;114382;1193;64403;-85
2021/04/04 08:37:04;;;;;;;4.55;2.50;;;;;;;6.87;68.59;99590.23;114319;1193;64358;-82
2021/04/04 08:39:34;;;;;;;5.95;2.00;;;;;;;6.45;68.16;99599.32;114362;1193;64375;-86
2021/04/04 08:42:06;;;;;;;5.73;2.90;;;;;;;6.45;68.98;99599.32;114291;1193;64550;-85
2021/04/04 08:44:41;;;;;;;4.15;1.80;;;;;;;6.80;68.87;99599.43;114362;1193;64240;-83
2021/04/04 08:47:29;;;;;;;5.83;2.63;;;;;;;7.04;68.25;99598.25;114344;1193;64381;-85
2021/04/04 08:50:00;;;;;;;5.33;1.87;;;;;;;7.57;68.53;99594.69;114348;1193;64410;-85
2021/04/04 08:52:32;;;;;;;8.35;4.05;;;;;;;7.97;67.48;99597.96;114331;1193;64381;-85
2021/04/04 08:54:59;;;;;;;5.73;2.80;;;;;;;7.95;67.85;99602.48;114269;1193;64429;-85
2021/04/04 08:57:40;;;;;;;4.43;2.23;;;;;;;7.84;68.27;99598.60;114346;1193;64361;-85
2021/04/04 09:00:09;;;;;;;6.95;2.60;;;;;;;7.84;68.09;99597.75;114344;1193;64301;-82
2021/04/04 09:02:43;;;;;;;4.27;2.77;;;;;;;7.79;67.44;99590.00;114317;1193;64532;-86
2021/04/04 09:05:11;;;;;;;9.10;4.50;;;;;;;8.02;67.51;99593.27;114407;1193;64343;-86
2021/04/04 09:07:43;;;;;;;4.97;2.30;;;;;;;8.31;67.25;99589.88;114327;1193;64471;-83
2021/04/04 09:10:14;;;;;;;7.07;2.10;;;;;;;8.78;67.91;99586.45;114327;1193;64419;-85
2021/04/04 09:12:42;;;;;;;4.00;2.55;;;;;;;9.19;67.99;99585.88;114344;1193;64372;-86
2021/04/04 09:15:11;;;;;;;4.83;2.10;;;;;;;9.27;67.27;99575.62;114281;1193;64532;-82
2021/04/04 09:17:48;;;;;;;2.80;2.00;;;;;;;9.12;67.10;99585.38;114376;1192;64366;-82
2021/04/04 09:20:15;;;;;;;3.47;1.97;;;;;;;8.94;66.90;99586.42;114315;1193;64493;-81
2021/04/04 09:22:49;;;;;;;4.53;2.37;;;;;;;8.91;67.00;99587.47;114340;1193;64426;-85
2021/04/04 09:25:18;;;;;;;4.13;2.07;;;;;;;8.55;65.92;99585.05;114362;1193;64364;-82
2021/04/04 09:27:46;;;;;;;5.07;3.10;;;;;;;8.18;66.00;99582.65;114350;1193;64461;-82
2021/04/04 09:30:33;;;;;;;4.55;2.50;;;;;;;7.90;66.95;99589.45;114364;1193;65884;-82
2021/04/04 09:33:01;;;;;;;4.55;2.30;;;;;;;7.85;67.29;99581.70;114223;1193;64365;-84
2021/04/04 09:35:29;;;;;;;4.10;2.03;;;;;;;8.06;67.43;99586.82;114324;1193;64382;-86
2021/04/04 09:38:14;;;;;;;3.97;2.23;;;;;;;8.05;66.94;99577.98;114364;1193;64371;-89
2021/04/04 09:40:43;;;;;;;4.20;2.45;;;;;;;7.95;66.92;99576.77;114346;1193;64567;-84
2021/04/04 09:43:17;;;;;;;4.23;2.47;;;;;;;7.83;66.72;99570.30;114380;1193;64409;-83
2021/04/04 09:45:44;;;;;;;5.30;2.40;;;;;;;7.78;66.65;99569.67;114308;1193;64327;-83
2021/04/04 09:48:24;;;;;;;3.87;2.40;;;;;;;8.20;67.10;99570.97;114324;1193;64397;-83
2021/04/04 09:51:03;;;;;;;5.10;3.17;;;;;;;8.71;66.75;99566.41;114367;1193;64471;-86
2021/04/04 09:53:43;;;;;;;3.20;2.50;;;;;;;8.63;66.55;99558.00;114343;1193;64416;-87
2021/04/04 09:56:19;;;;;;;6.30;2.90;;;;;;;8.60;65.95;99555.52;114389;1193;64458;-86
2021/04/04 09:58:48;;;;;;;5.30;2.55;;;;;;;8.45;65.81;99549.23;114381;1192;64423;-84
2021/04/04 10:01:26;;;;;;;4.55;2.65;;;;;;;8.37;66.60;99552.33;114361;1193;64468;-81
2021/04/04 10:03:57;;;;;;;5.67;3.63;;;;;;;8.32;66.35;99553.48;114281;1193;64407;-86
2021/04/04 10:06:24;;;;;;;5.50;2.93;;;;;;;8.10;65.93;99553.80;114300;1193;64454;-88
2021/04/04 10:08:56;;;;;;;6.60;3.27;;;;;;;8.37;66.28;99546.14;114331;1193;64362;-87
2021/04/04 10:11:24;;;;;;;5.13;3.10;;;;;;;8.90;67.33;99545.77;114350;1192;64401;-87
2021/04/04 10:13:51;;;;;;;5.50;2.60;;;;;;;9.38;66.02;99541.20;114343;1193;64378;-86
2021/04/04 10:16:23;;;;;;;6.27;3.00;;;;;;;9.26;65.54;99538.41;114333;1193;64448;-81
2021/04/04 10:19:14;;;;;;;4.27;2.87;;;;;;;9.00;65.45;99542.59;114774;1192;64362;-81
2021/04/04 10:21:55;;;;;;;3.80;2.83;;;;;;;8.83;65.63;99541.74;114390;1193;64789;-82
2021/04/04 10:24:32;;;;;;;5.73;2.80;;;;;;;8.78;65.07;99540.29;114423;1192;64374;-85
2021/04/04 10:27:27;;;;;;;8.43;4.60;;;;;;;8.63;65.46;99526.05;114696;1193;64304;-82
2021/04/04 10:30:23;;;;;;;5.38;3.40;;;;;;;9.21;66.06;99523.53;114380;1193;64327;-84
2021/04/04 10:32:51;;;;;;;8.65;3.15;;;;;;;9.72;65.27;99528.50;114321;1191;64464;-87
2021/04/04 10:35:37;;;;;;;5.13;3.13;;;;;;;10.07;65.34;99525.48;114644;1193;64321;-82
2021/04/04 10:38:07;;;;;;;3.83;2.70;;;;;;;9.93;64.83;99524.53;114385;1193;64385;-82
2021/04/04 10:40:43;;;;;;;5.80;3.17;;;;;;;9.91;65.55;99510.41;114403;1193;64345;-82
2021/04/04 10:43:15;;;;;;;4.73;2.33;;;;;;;9.99;65.16;99513.48;114309;1193;64372;-86
2021/04/04 10:46:03;;;;;;;6.83;4.03;;;;;;;9.92;64.24;99514.78;114271;1193;64516;-81
2021/04/04 10:48:33;;;;;;;4.30;3.10;;;;;;;9.51;64.64;99520.00;114424;1192;64369;-83
2021/04/04 10:51:00;;;;;;;6.83;3.40;;;;;;;9.37;65.07;99517.31;114336;1193;64349;-85
2021/04/04 10:53:28;;;;;;;5.80;3.30;;;;;;;9.61;65.88;99512.31;114344;1193;64407;-81
2021/04/04 10:55:55;;;;;;;4.33;2.80;;;;;;;10.10;65.39;99502.11;114171;1193;64426;-86
2021/04/04 10:58:26;;;;;;;7.13;4.20;;;;;;;10.46;65.46;99504.29;114334;1193;64462;-82
2021/04/04 11:00:58;;;;;;;4.85;3.00;;;;;;;11.07;65.19;99499.42;114396;1191;64378;-83
2021/04/04 11:03:27;;;;;;;3.95;2.85;;;;;;;11.15;63.65;99496.22;114381;1193;64324;-82
2021/04/04 11:05:54;;;;;;;6.07;3.00;;;;;;;11.51;64.28;99498.19;114467;1193;64340;-82
2021/04/04 11:08:22;;;;;;;3.47;2.33;;;;;;;11.84;64.44;99495.05;114565;1192;64349;-88
2021/04/04 11:10:50;;;;;;;23.97;12.37;;;;;;;11.85;63.49;99502.10;114340;1193;64385;-81
2021/04/04 11:13:22;;;;;;;9.70;5.40;;;;;;;11.71;63.16;99497.69;114375;1193;64407;-85
2021/04/04 11:16:01;;;;;;;5.43;2.97;;;;;;;11.38;63.47;99484.80;114332;1193;64314;-83
2021/04/04 11:18:37;;;;;;;5.10;3.33;;;;;;;11.13;64.16;99488.28;114387;1193;64349;-85
2021/04/04 11:21:07;;;;;;;5.65;3.90;;;;;;;10.77;63.54;99491.61;114347;1193;64369;-81
2021/04/04 11:23:37;;;;;;;7.47;4.70;;;;;;;10.44;62.79;99486.67;114348;1193;64526;-80
2021/04/04 11:26:25;;;;;;;5.23;3.73;;;;;;;10.01;63.59;99498.22;115016;1193;64369;-81
2021/04/04 11:29:16;;;;;;;6.35;3.70;;;;;;;9.89;64.11;99485.64;114390;1193;64387;-86
2021/04/04 11:31:46;;;;;;;6.20;3.67;;;;;;;10.26;64.43;99483.36;114414;1193;64298;-82
2021/04/04 11:34:33;;;;;;;5.15;3.05;;;;;;;10.72;63.52;99472.36;114332;1193;64454;-83
2021/04/04 11:37:03;;;;;;;5.73;3.10;;;;;;;10.86;63.68;99468.77;114834;1193;64458;-85
2021/04/04 11:39:31;;;;;;;5.45;3.40;;;;;;;11.12;64.42;99467.02;114456;1193;64395;-82
2021/04/04 11:42:00;;;;;;;12.50;6.40;;;;;;;11.30;63.92;99468.44;114595;1193;64337;-81
2021/04/04 11:44:34;;;;;;;8.30;3.70;;;;;;;11.18;62.75;99458.58;114325;1193;64404;-83
2021/04/04 11:47:02;;;;;;;5.33;3.20;;;;;;;10.86;63.76;99450.91;114339;1193;64851;-83
2021/04/04 11:49:49;;;;;;;3.93;3.13;;;;;;;11.14;64.43;99444.58;114523;1193;64545;-82
2021/04/04 11:52:15;;;;;;;11.60;7.40;;;;;;;11.30;63.22;99436.35;114418;1193;64360;-82
2021/04/04 11:54:48;;;;;;;6.05;4.05;;;;;;;11.37;62.82;99433.14;114268;1193;64291;-85
2021/04/04 11:57:31;;;;;;;6.40;3.97;;;;;;;11.26;62.34;99421.47;114522;1193;64333;-82
2021/04/04 11:59:59;;;;;;;21.10;7.83;;;;;;;10.96;63.01;99427.97;114530;1193;64560;-86